sensor_id;sensor_type;location;lat;lon;timestamp;P1;durP1;ratioP1;P2;durP2;ratioP2
69392;SDS011;56582;44.624;20.378;2023-10-19T00:00:18;10.73;;;7.30;;
69392;SDS011;56582;44.624;20.378;2023-10-19T00:02:50;11.60;;;7.18;;
69392;SDS011;56582;44.624;20.378;2023-10-19T00:05:19;12.10;;;6.78;;
69392;SDS011;56582;44.624;20.378;2023-10-19T00:07:45;12.03;;;7.20;;
69392;SDS011;56582;44.624;20.378;2023-10-19T00:10:11;11.75;;;7.22;;
69392;SDS011;56582;44.624;20.378;2023-10-19T00:12:41;11.13;;;7.90;;
69392;SDS011;56582;44.624;20.378;2023-10-19T00:15:07;11.13;;;7.03;;
69392;SDS011;56582;44.624;20.378;2023-10-19T00:17:35;10.87;;;7.30;;
69392;SDS011;56582;44.624;20.378;2023-10-19T00:20:01;11.50;;;6.93;;
69392;SDS011;56582;44.624;20.378;2023-10-19T00:22:52;11.95;;;7.30;;
69392;SDS011;56582;44.624;20.378;2023-10-19T00:25:18;12.48;;;6.60;;
69392;SDS011;56582;44.624;20.378;2023-10-19T00:27:44;11.60;;;6.93;;
69392;SDS011;56582;44.624;20.378;2023-10-19T00:30:10;13.77;;;7.75;;
69392;SDS011;56582;44.624;20.378;2023-10-19T00:32:36;11.27;;;7.10;;
69392;SDS011;56582;44.624;20.378;2023-10-19T00:35:04;11.77;;;8.10;;
69392;SDS011;56582;44.624;20.378;2023-10-19T00:37:46;13.30;;;8.13;;
69392;SDS011;56582;44.624;20.378;2023-10-19T00:40:13;11.85;;;7.75;;
69392;SDS011;56582;44.624;20.378;2023-10-19T00:42:58;10.30;;;7.78;;
69392;SDS011;56582;44.624;20.378;2023-10-19T00:45:24;12.33;;;7.40;;
69392;SDS011;56582;44.624;20.378;2023-10-19T00:47:51;11.05;;;6.82;;
69392;SDS011;56582;44.624;20.378;2023-10-19T00:50:18;12.65;;;8.20;;
69392;SDS011;56582;44.624;20.378;2023-10-19T00:52:47;12.00;;;6.82;;
69392;SDS011;56582;44.624;20.378;2023-10-19T00:55:17;12.57;;;7.93;;
69392;SDS011;56582;44.624;20.378;2023-10-19T00:57:46;12.90;;;7.27;;
69392;SDS011;56582;44.624;20.378;2023-10-19T01:00:14;13.10;;;8.05;;
69392;SDS011;56582;44.624;20.378;2023-10-19T01:03:06;12.48;;;7.97;;
69392;SDS011;56582;44.624;20.378;2023-10-19T01:05:34;11.63;;;7.13;;
69392;SDS011;56582;44.624;20.378;2023-10-19T01:08:03;11.45;;;7.85;;
69392;SDS011;56582;44.624;20.378;2023-10-19T01:10:47;11.57;;;7.60;;
69392;SDS011;56582;44.624;20.378;2023-10-19T01:13:17;12.18;;;7.90;;
69392;SDS011;56582;44.624;20.378;2023-10-19T01:15:43;12.07;;;8.00;;
69392;SDS011;56582;44.624;20.378;2023-10-19T01:18:12;11.85;;;7.75;;
69392;SDS011;56582;44.624;20.378;2023-10-19T01:20:39;10.65;;;6.63;;
69392;SDS011;56582;44.624;20.378;2023-10-19T01:23:15;11.83;;;7.90;;
69392;SDS011;56582;44.624;20.378;2023-10-19T01:25:50;13.18;;;7.43;;
69392;SDS011;56582;44.624;20.378;2023-10-19T01:28:24;11.20;;;8.00;;
69392;SDS011;56582;44.624;20.378;2023-10-19T01:33:42;10.40;;;7.20;;
69392;SDS011;56582;44.624;20.378;2023-10-19T01:36:09;10.13;;;6.47;;
69392;SDS011;56582;44.624;20.378;2023-10-19T01:38:35;11.32;;;7.30;;
69392;SDS011;56582;44.624;20.378;2023-10-19T01:41:01;10.27;;;6.90;;
69392;SDS011;56582;44.624;20.378;2023-10-19T01:43:32;11.47;;;6.70;;
69392;SDS011;56582;44.624;20.378;2023-10-19T01:45:58;10.35;;;6.57;;
69392;SDS011;56582;44.624;20.378;2023-10-19T01:48:30;11.85;;;7.25;;
69392;SDS011;56582;44.624;20.378;2023-10-19T01:51:04;10.27;;;6.80;;
69392;SDS011;56582;44.624;20.378;2023-10-19T01:53:31;11.13;;;7.18;;
69392;SDS011;56582;44.624;20.378;2023-10-19T01:55:57;10.32;;;7.55;;
69392;SDS011;56582;44.624;20.378;2023-10-19T01:58:26;12.32;;;6.85;;
69392;SDS011;56582;44.624;20.378;2023-10-19T02:00:54;10.03;;;6.67;;
69392;SDS011;56582;44.624;20.378;2023-10-19T02:03:21;11.65;;;7.20;;
69392;SDS011;56582;44.624;20.378;2023-10-19T02:05:56;9.90;;;7.07;;
69392;SDS011;56582;44.624;20.378;2023-10-19T02:08:24;11.52;;;7.00;;
69392;SDS011;56582;44.624;20.378;2023-10-19T02:10:51;11.30;;;7.43;;
69392;SDS011;56582;44.624;20.378;2023-10-19T02:13:18;10.53;;;6.77;;
69392;SDS011;56582;44.624;20.378;2023-10-19T02:15:44;11.43;;;7.43;;
69392;SDS011;56582;44.624;20.378;2023-10-19T02:18:10;10.65;;;7.55;;
69392;SDS011;56582;44.624;20.378;2023-10-19T02:20:35;15.87;;;7.30;;
69392;SDS011;56582;44.624;20.378;2023-10-19T02:23:05;11.48;;;7.47;;
69392;SDS011;56582;44.624;20.378;2023-10-19T02:25:33;10.30;;;7.40;;
69392;SDS011;56582;44.624;20.378;2023-10-19T02:28:02;10.13;;;7.63;;
69392;SDS011;56582;44.624;20.378;2023-10-19T02:30:29;10.13;;;6.25;;
69392;SDS011;56582;44.624;20.378;2023-10-19T02:32:56;11.20;;;7.25;;
69392;SDS011;56582;44.624;20.378;2023-10-19T02:35:21;10.83;;;7.20;;
69392;SDS011;56582;44.624;20.378;2023-10-19T02:37:47;9.60;;;6.70;;
69392;SDS011;56582;44.624;20.378;2023-10-19T02:40:13;11.23;;;8.00;;
69392;SDS011;56582;44.624;20.378;2023-10-19T02:42:45;10.63;;;6.75;;
69392;SDS011;56582;44.624;20.378;2023-10-19T02:45:13;9.90;;;6.50;;
69392;SDS011;56582;44.624;20.378;2023-10-19T02:47:45;10.65;;;6.40;;
69392;SDS011;56582;44.624;20.378;2023-10-19T02:50:11;9.85;;;6.05;;
69392;SDS011;56582;44.624;20.378;2023-10-19T02:52:47;10.68;;;7.10;;
69392;SDS011;56582;44.624;20.378;2023-10-19T02:55:13;10.80;;;6.47;;
69392;SDS011;56582;44.624;20.378;2023-10-19T02:57:41;12.10;;;6.80;;
69392;SDS011;56582;44.624;20.378;2023-10-19T03:00:11;9.35;;;6.60;;
69392;SDS011;56582;44.624;20.378;2023-10-19T03:02:39;11.75;;;7.63;;
69392;SDS011;56582;44.624;20.378;2023-10-19T03:05:06;9.77;;;6.90;;
69392;SDS011;56582;44.624;20.378;2023-10-19T03:07:42;10.63;;;6.82;;
69392;SDS011;56582;44.624;20.378;2023-10-19T03:10:09;12.57;;;6.95;;
69392;SDS011;56582;44.624;20.378;2023-10-19T03:13:04;11.48;;;7.25;;
69392;SDS011;56582;44.624;20.378;2023-10-19T03:15:36;10.90;;;6.75;;
69392;SDS011;56582;44.624;20.378;2023-10-19T03:18:07;9.37;;;6.77;;
69392;SDS011;56582;44.624;20.378;2023-10-19T03:20:33;11.70;;;7.10;;
69392;SDS011;56582;44.624;20.378;2023-10-19T03:22:59;9.73;;;6.07;;
69392;SDS011;56582;44.624;20.378;2023-10-19T03:25:27;9.35;;;6.20;;
69392;SDS011;56582;44.624;20.378;2023-10-19T03:28:11;9.50;;;6.22;;
69392;SDS011;56582;44.624;20.378;2023-10-19T03:30:37;8.73;;;6.10;;
69392;SDS011;56582;44.624;20.378;2023-10-19T03:33:06;9.77;;;6.43;;
69392;SDS011;56582;44.624;20.378;2023-10-19T03:35:38;11.10;;;6.82;;
69392;SDS011;56582;44.624;20.378;2023-10-19T03:38:07;11.80;;;6.77;;
69392;SDS011;56582;44.624;20.378;2023-10-19T03:40:40;11.40;;;6.30;;
69392;SDS011;56582;44.624;20.378;2023-10-19T03:43:06;9.77;;;5.95;;
69392;SDS011;56582;44.624;20.378;2023-10-19T03:45:42;11.48;;;6.70;;
69392;SDS011;56582;44.624;20.378;2023-10-19T03:48:11;14.73;;;7.90;;
69392;SDS011;56582;44.624;20.378;2023-10-19T03:50:37;16.00;;;7.47;;
69392;SDS011;56582;44.624;20.378;2023-10-19T03:53:03;11.23;;;7.03;;
69392;SDS011;56582;44.624;20.378;2023-10-19T03:55:29;14.40;;;7.90;;
69392;SDS011;56582;44.624;20.378;2023-10-19T03:57:55;16.02;;;7.75;;
69392;SDS011;56582;44.624;20.378;2023-10-19T04:00:21;15.00;;;7.50;;
69392;SDS011;56582;44.624;20.378;2023-10-19T04:02:50;15.93;;;7.20;;
69392;SDS011;56582;44.624;20.378;2023-10-19T04:05:21;15.45;;;7.60;;
69392;SDS011;56582;44.624;20.378;2023-10-19T04:07:53;10.07;;;6.63;;
69392;SDS011;56582;44.624;20.378;2023-10-19T04:10:22;17.02;;;6.95;;
69392;SDS011;56582;44.624;20.378;2023-10-19T04:13:00;25.40;;;8.68;;
69392;SDS011;56582;44.624;20.378;2023-10-19T04:15:26;10.43;;;6.47;;
69392;SDS011;56582;44.624;20.378;2023-10-19T04:17:54;16.75;;;7.45;;
69392;SDS011;56582;44.624;20.378;2023-10-19T04:20:21;12.10;;;6.38;;
69392;SDS011;56582;44.624;20.378;2023-10-19T04:23:07;12.18;;;7.13;;
69392;SDS011;56582;44.624;20.378;2023-10-19T04:25:35;12.40;;;6.60;;
69392;SDS011;56582;44.624;20.378;2023-10-19T04:28:01;11.27;;;6.68;;
69392;SDS011;56582;44.624;20.378;2023-10-19T04:30:28;14.90;;;7.97;;
69392;SDS011;56582;44.624;20.378;2023-10-19T04:32:54;12.70;;;7.07;;
69392;SDS011;56582;44.624;20.378;2023-10-19T04:35:22;12.85;;;7.22;;
69392;SDS011;56582;44.624;20.378;2023-10-19T04:37:48;10.97;;;6.70;;
69392;SDS011;56582;44.624;20.378;2023-10-19T04:40:15;10.68;;;6.57;;
69392;SDS011;56582;44.624;20.378;2023-10-19T04:42:42;10.05;;;6.95;;
69392;SDS011;56582;44.624;20.378;2023-10-19T04:45:07;12.00;;;7.47;;
69392;SDS011;56582;44.624;20.378;2023-10-19T04:47:34;13.27;;;7.07;;
69392;SDS011;56582;44.624;20.378;2023-10-19T04:50:04;13.07;;;6.57;;
69392;SDS011;56582;44.624;20.378;2023-10-19T04:52:30;9.63;;;5.90;;
69392;SDS011;56582;44.624;20.378;2023-10-19T04:54:57;9.55;;;5.88;;
69392;SDS011;56582;44.624;20.378;2023-10-19T04:57:23;11.80;;;5.93;;
69392;SDS011;56582;44.624;20.378;2023-10-19T04:59:49;9.67;;;6.67;;
69392;SDS011;56582;44.624;20.378;2023-10-19T05:02:15;10.07;;;6.10;;
69392;SDS011;56582;44.624;20.378;2023-10-19T05:04:40;12.50;;;6.40;;
69392;SDS011;56582;44.624;20.378;2023-10-19T05:07:06;10.97;;;6.60;;
69392;SDS011;56582;44.624;20.378;2023-10-19T05:09:34;11.25;;;6.72;;
69392;SDS011;56582;44.624;20.378;2023-10-19T05:12:03;12.27;;;6.65;;
69392;SDS011;56582;44.624;20.378;2023-10-19T05:14:29;10.03;;;6.43;;
69392;SDS011;56582;44.624;20.378;2023-10-19T05:16:55;10.85;;;6.80;;
69392;SDS011;56582;44.624;20.378;2023-10-19T05:19:20;12.63;;;6.43;;
69392;SDS011;56582;44.624;20.378;2023-10-19T05:21:46;9.80;;;6.95;;
69392;SDS011;56582;44.624;20.378;2023-10-19T05:24:11;9.60;;;6.33;;
69392;SDS011;56582;44.624;20.378;2023-10-19T05:26:37;9.50;;;6.17;;
69392;SDS011;56582;44.624;20.378;2023-10-19T05:29:02;10.23;;;5.90;;
69392;SDS011;56582;44.624;20.378;2023-10-19T05:31:28;10.35;;;6.50;;
69392;SDS011;56582;44.624;20.378;2023-10-19T05:33:56;8.95;;;5.75;;
69392;SDS011;56582;44.624;20.378;2023-10-19T05:36:21;9.60;;;6.20;;
69392;SDS011;56582;44.624;20.378;2023-10-19T05:38:47;11.43;;;7.10;;
69392;SDS011;56582;44.624;20.378;2023-10-19T05:41:12;8.90;;;5.97;;
69392;SDS011;56582;44.624;20.378;2023-10-19T05:43:39;10.55;;;6.75;;
69392;SDS011;56582;44.624;20.378;2023-10-19T05:46:05;10.10;;;6.50;;
69392;SDS011;56582;44.624;20.378;2023-10-19T05:48:31;10.88;;;6.88;;
69392;SDS011;56582;44.624;20.378;2023-10-19T05:50:56;9.33;;;5.87;;
69392;SDS011;56582;44.624;20.378;2023-10-19T05:53:22;11.43;;;6.30;;
69392;SDS011;56582;44.624;20.378;2023-10-19T05:55:50;9.98;;;6.45;;
69392;SDS011;56582;44.624;20.378;2023-10-19T05:58:16;10.23;;;6.55;;
69392;SDS011;56582;44.624;20.378;2023-10-19T06:00:41;10.37;;;7.00;;
69392;SDS011;56582;44.624;20.378;2023-10-19T06:03:07;10.02;;;6.90;;
69392;SDS011;56582;44.624;20.378;2023-10-19T06:05:33;11.33;;;6.43;;
69392;SDS011;56582;44.624;20.378;2023-10-19T06:07:58;9.85;;;6.18;;
69392;SDS011;56582;44.624;20.378;2023-10-19T06:10:25;10.83;;;6.60;;
69392;SDS011;56582;44.624;20.378;2023-10-19T06:12:52;10.50;;;6.93;;
69392;SDS011;56582;44.624;20.378;2023-10-19T06:15:18;10.40;;;6.80;;
69392;SDS011;56582;44.624;20.378;2023-10-19T06:17:56;9.90;;;6.07;;
69392;SDS011;56582;44.624;20.378;2023-10-19T06:20:21;9.50;;;6.63;;
69392;SDS011;56582;44.624;20.378;2023-10-19T06:22:51;11.37;;;7.37;;
69392;SDS011;56582;44.624;20.378;2023-10-19T06:25:18;10.10;;;7.05;;
69392;SDS011;56582;44.624;20.378;2023-10-19T06:27:46;10.00;;;6.28;;
69392;SDS011;56582;44.624;20.378;2023-10-19T06:30:13;10.77;;;6.75;;
69392;SDS011;56582;44.624;20.378;2023-10-19T06:32:43;9.30;;;6.75;;
69392;SDS011;56582;44.624;20.378;2023-10-19T06:35:10;9.93;;;6.17;;
69392;SDS011;56582;44.624;20.378;2023-10-19T06:37:36;9.90;;;6.43;;
69392;SDS011;56582;44.624;20.378;2023-10-19T06:40:02;9.27;;;6.77;;
69392;SDS011;56582;44.624;20.378;2023-10-19T06:42:27;9.70;;;6.05;;
69392;SDS011;56582;44.624;20.378;2023-10-19T06:44:53;10.43;;;7.40;;
69392;SDS011;56582;44.624;20.378;2023-10-19T06:47:20;10.30;;;6.72;;
69392;SDS011;56582;44.624;20.378;2023-10-19T06:49:48;9.25;;;6.25;;
69392;SDS011;56582;44.624;20.378;2023-10-19T06:52:13;9.73;;;6.63;;
69392;SDS011;56582;44.624;20.378;2023-10-19T06:54:39;10.70;;;7.17;;
69392;SDS011;56582;44.624;20.378;2023-10-19T06:57:04;10.50;;;6.32;;
69392;SDS011;56582;44.624;20.378;2023-10-19T06:59:30;8.55;;;5.93;;
69392;SDS011;56582;44.624;20.378;2023-10-19T07:01:58;9.87;;;6.70;;
69392;SDS011;56582;44.624;20.378;2023-10-19T07:04:26;10.45;;;6.30;;
69392;SDS011;56582;44.624;20.378;2023-10-19T07:06:52;10.10;;;6.03;;
69392;SDS011;56582;44.624;20.378;2023-10-19T07:09:18;10.35;;;5.78;;
69392;SDS011;56582;44.624;20.378;2023-10-19T07:11:44;11.90;;;6.33;;
69392;SDS011;56582;44.624;20.378;2023-10-19T07:14:10;9.63;;;6.87;;
69392;SDS011;56582;44.624;20.378;2023-10-19T07:16:38;9.20;;;6.40;;
69392;SDS011;56582;44.624;20.378;2023-10-19T07:19:06;10.98;;;6.20;;
69392;SDS011;56582;44.624;20.378;2023-10-19T07:21:31;9.20;;;5.90;;
69392;SDS011;56582;44.624;20.378;2023-10-19T07:24:00;9.60;;;6.57;;
69392;SDS011;56582;44.624;20.378;2023-10-19T07:26:30;10.43;;;6.68;;
69392;SDS011;56582;44.624;20.378;2023-10-19T07:28:58;8.85;;;5.85;;
69392;SDS011;56582;44.624;20.378;2023-10-19T07:31:25;9.63;;;6.50;;
69392;SDS011;56582;44.624;20.378;2023-10-19T07:33:52;9.07;;;6.32;;
69392;SDS011;56582;44.624;20.378;2023-10-19T07:36:20;9.75;;;6.45;;
69392;SDS011;56582;44.624;20.378;2023-10-19T07:38:48;9.88;;;6.20;;
69392;SDS011;56582;44.624;20.378;2023-10-19T07:41:13;10.07;;;6.50;;
69392;SDS011;56582;44.624;20.378;2023-10-19T07:43:39;11.60;;;6.40;;
69392;SDS011;56582;44.624;20.378;2023-10-19T07:46:04;9.95;;;6.25;;
69392;SDS011;56582;44.624;20.378;2023-10-19T07:48:30;8.27;;;6.17;;
69392;SDS011;56582;44.624;20.378;2023-10-19T07:50:55;9.95;;;6.60;;
69392;SDS011;56582;44.624;20.378;2023-10-19T07:53:21;9.13;;;6.10;;
69392;SDS011;56582;44.624;20.378;2023-10-19T07:55:47;9.38;;;6.45;;
69392;SDS011;56582;44.624;20.378;2023-10-19T07:58:12;10.90;;;5.90;;
69392;SDS011;56582;44.624;20.378;2023-10-19T08:00:38;9.40;;;5.97;;
69392;SDS011;56582;44.624;20.378;2023-10-19T08:03:04;10.33;;;6.90;;
69392;SDS011;56582;44.624;20.378;2023-10-19T08:05:30;9.80;;;6.83;;
69392;SDS011;56582;44.624;20.378;2023-10-19T08:07:56;10.10;;;6.13;;
69392;SDS011;56582;44.624;20.378;2023-10-19T08:10:25;10.85;;;5.93;;
69392;SDS011;56582;44.624;20.378;2023-10-19T08:12:52;9.50;;;6.25;;
69392;SDS011;56582;44.624;20.378;2023-10-19T08:15:17;12.93;;;6.67;;
69392;SDS011;56582;44.624;20.378;2023-10-19T08:17:46;8.65;;;5.95;;
69392;SDS011;56582;44.624;20.378;2023-10-19T08:20:13;10.50;;;6.07;;
69392;SDS011;56582;44.624;20.378;2023-10-19T08:22:48;8.13;;;5.82;;
69392;SDS011;56582;44.624;20.378;2023-10-19T08:25:15;8.18;;;5.50;;
69392;SDS011;56582;44.624;20.378;2023-10-19T08:27:44;8.73;;;6.23;;
69392;SDS011;56582;44.624;20.378;2023-10-19T08:30:11;9.90;;;5.57;;
69392;SDS011;56582;44.624;20.378;2023-10-19T08:32:38;10.27;;;6.80;;
69392;SDS011;56582;44.624;20.378;2023-10-19T08:35:05;9.20;;;5.75;;
69392;SDS011;56582;44.624;20.378;2023-10-19T08:37:31;8.70;;;6.53;;
69392;SDS011;56582;44.624;20.378;2023-10-19T08:39:57;10.25;;;6.40;;
69392;SDS011;56582;44.624;20.378;2023-10-19T08:42:23;9.27;;;5.88;;
69392;SDS011;56582;44.624;20.378;2023-10-19T08:44:49;8.27;;;5.82;;
69392;SDS011;56582;44.624;20.378;2023-10-19T08:47:14;8.93;;;5.70;;
69392;SDS011;56582;44.624;20.378;2023-10-19T08:49:40;7.65;;;5.75;;
69392;SDS011;56582;44.624;20.378;2023-10-19T08:52:07;8.75;;;6.40;;
69392;SDS011;56582;44.624;20.378;2023-10-19T08:54:34;8.45;;;6.30;;
69392;SDS011;56582;44.624;20.378;2023-10-19T08:57:00;8.93;;;6.23;;
69392;SDS011;56582;44.624;20.378;2023-10-19T08:59:26;8.05;;;6.18;;
69392;SDS011;56582;44.624;20.378;2023-10-19T09:02:01;8.68;;;6.40;;
69392;SDS011;56582;44.624;20.378;2023-10-19T09:04:27;8.87;;;6.33;;
69392;SDS011;56582;44.624;20.378;2023-10-19T09:06:54;9.38;;;6.10;;
69392;SDS011;56582;44.624;20.378;2023-10-19T09:09:20;8.95;;;5.90;;
69392;SDS011;56582;44.624;20.378;2023-10-19T09:11:50;10.57;;;5.78;;
69392;SDS011;56582;44.624;20.378;2023-10-19T09:14:36;8.43;;;6.43;;
69392;SDS011;56582;44.624;20.378;2023-10-19T09:17:06;8.73;;;5.80;;
69392;SDS011;56582;44.624;20.378;2023-10-19T09:19:39;8.70;;;6.15;;
69392;SDS011;56582;44.624;20.378;2023-10-19T09:22:06;9.57;;;6.00;;
69392;SDS011;56582;44.624;20.378;2023-10-19T09:24:34;8.03;;;5.60;;
69392;SDS011;56582;44.624;20.378;2023-10-19T09:27:01;9.13;;;5.50;;
69392;SDS011;56582;44.624;20.378;2023-10-19T09:29:28;9.70;;;6.35;;
69392;SDS011;56582;44.624;20.378;2023-10-19T09:31:53;9.80;;;5.73;;
69392;SDS011;56582;44.624;20.378;2023-10-19T09:34:23;8.15;;;5.53;;
69392;SDS011;56582;44.624;20.378;2023-10-19T09:36:56;8.35;;;5.40;;
69392;SDS011;56582;44.624;20.378;2023-10-19T09:39:24;9.93;;;4.80;;
69392;SDS011;56582;44.624;20.378;2023-10-19T09:41:50;8.27;;;5.33;;
69392;SDS011;56582;44.624;20.378;2023-10-19T09:44:17;6.82;;;4.50;;
69392;SDS011;56582;44.624;20.378;2023-10-19T09:46:50;7.47;;;4.30;;
69392;SDS011;56582;44.624;20.378;2023-10-19T09:49:19;8.07;;;4.40;;
69392;SDS011;56582;44.624;20.378;2023-10-19T09:51:45;8.35;;;5.32;;
69392;SDS011;56582;44.624;20.378;2023-10-19T09:54:17;7.88;;;5.07;;
69392;SDS011;56582;44.624;20.378;2023-10-19T09:56:52;8.57;;;4.00;;
69392;SDS011;56582;44.624;20.378;2023-10-19T10:02:06;6.18;;;4.00;;
69392;SDS011;56582;44.624;20.378;2023-10-19T10:04:39;7.00;;;4.18;;
69392;SDS011;56582;44.624;20.378;2023-10-19T10:07:10;7.70;;;4.93;;
69392;SDS011;56582;44.624;20.378;2023-10-19T10:09:41;7.93;;;4.70;;
69392;SDS011;56582;44.624;20.378;2023-10-19T10:12:18;7.70;;;4.90;;
69392;SDS011;56582;44.624;20.378;2023-10-19T10:17:27;7.88;;;4.00;;
69392;SDS011;56582;44.624;20.378;2023-10-19T10:20:28;6.87;;;4.40;;
69392;SDS011;56582;44.624;20.378;2023-10-19T10:22:39;6.05;;;4.65;;
69392;SDS011;56582;44.624;20.378;2023-10-19T10:25:06;7.70;;;4.93;;
69392;SDS011;56582;44.624;20.378;2023-10-19T10:27:35;6.50;;;4.40;;
69392;SDS011;56582;44.624;20.378;2023-10-19T10:30:01;8.63;;;5.30;;
69392;SDS011;56582;44.624;20.378;2023-10-19T10:38:06;8.02;;;4.40;;
69392;SDS011;56582;44.624;20.378;2023-10-19T10:40:43;6.00;;;4.13;;
69392;SDS011;56582;44.624;20.378;2023-10-19T10:43:12;7.07;;;4.50;;
69392;SDS011;56582;44.624;20.378;2023-10-19T10:45:38;9.40;;;4.53;;
69392;SDS011;56582;44.624;20.378;2023-10-19T10:48:04;8.25;;;4.68;;
69392;SDS011;56582;44.624;20.378;2023-10-19T10:50:37;7.30;;;5.53;;
69392;SDS011;56582;44.624;20.378;2023-10-19T10:53:05;8.77;;;5.70;;
69392;SDS011;56582;44.624;20.378;2023-10-19T10:55:31;7.68;;;5.15;;
69392;SDS011;56582;44.624;20.378;2023-10-19T10:57:57;9.98;;;5.13;;
69392;SDS011;56582;44.624;20.378;2023-10-19T11:00:23;7.20;;;4.80;;
69392;SDS011;56582;44.624;20.378;2023-10-19T11:03:04;19.38;;;4.88;;
69392;SDS011;56582;44.624;20.378;2023-10-19T11:05:33;7.25;;;5.57;;
69392;SDS011;56582;44.624;20.378;2023-10-19T11:10:38;7.47;;;5.00;;
69392;SDS011;56582;44.624;20.378;2023-10-19T11:13:05;6.80;;;4.90;;
69392;SDS011;56582;44.624;20.378;2023-10-19T11:15:35;7.10;;;4.30;;
69392;SDS011;56582;44.624;20.378;2023-10-19T11:18:02;7.75;;;4.40;;
69392;SDS011;56582;44.624;20.378;2023-10-19T11:20:28;6.93;;;3.95;;
69392;SDS011;56582;44.624;20.378;2023-10-19T11:22:54;6.97;;;4.13;;
69392;SDS011;56582;44.624;20.378;2023-10-19T11:25:27;7.38;;;3.70;;
69392;SDS011;56582;44.624;20.378;2023-10-19T11:27:57;6.82;;;4.50;;
69392;SDS011;56582;44.624;20.378;2023-10-19T11:30:24;6.88;;;4.60;;
69392;SDS011;56582;44.624;20.378;2023-10-19T11:32:51;6.50;;;4.93;;
69392;SDS011;56582;44.624;20.378;2023-10-19T11:35:26;8.33;;;4.50;;
69392;SDS011;56582;44.624;20.378;2023-10-19T11:37:54;7.72;;;4.32;;
69392;SDS011;56582;44.624;20.378;2023-10-19T11:40:21;8.00;;;5.00;;
69392;SDS011;56582;44.624;20.378;2023-10-19T11:42:48;6.55;;;4.30;;
69392;SDS011;56582;44.624;20.378;2023-10-19T11:45:15;6.00;;;4.03;;
69392;SDS011;56582;44.624;20.378;2023-10-19T11:47:45;7.47;;;4.43;;
69392;SDS011;56582;44.624;20.378;2023-10-19T11:50:11;7.20;;;4.35;;
69392;SDS011;56582;44.624;20.378;2023-10-19T11:52:39;6.25;;;3.97;;
69392;SDS011;56582;44.624;20.378;2023-10-19T11:55:05;6.57;;;4.00;;
69392;SDS011;56582;44.624;20.378;2023-10-19T11:57:31;7.13;;;4.30;;
69392;SDS011;56582;44.624;20.378;2023-10-19T11:59:57;5.80;;;3.38;;
69392;SDS011;56582;44.624;20.378;2023-10-19T12:02:24;6.45;;;3.20;;
69392;SDS011;56582;44.624;20.378;2023-10-19T12:04:52;6.43;;;2.95;;
69392;SDS011;56582;44.624;20.378;2023-10-19T12:07:17;5.80;;;3.30;;
69392;SDS011;56582;44.624;20.378;2023-10-19T12:09:43;6.70;;;3.90;;
69392;SDS011;56582;44.624;20.378;2023-10-19T12:12:10;6.18;;;3.63;;
69392;SDS011;56582;44.624;20.378;2023-10-19T12:14:38;5.77;;;3.30;;
69392;SDS011;56582;44.624;20.378;2023-10-19T12:17:04;5.85;;;3.05;;
69392;SDS011;56582;44.624;20.378;2023-10-19T12:19:32;6.53;;;3.70;;
69392;SDS011;56582;44.624;20.378;2023-10-19T12:21:59;6.13;;;3.10;;
69392;SDS011;56582;44.624;20.378;2023-10-19T12:24:25;6.10;;;3.35;;
69392;SDS011;56582;44.624;20.378;2023-10-19T12:26:53;6.75;;;3.40;;
69392;SDS011;56582;44.624;20.378;2023-10-19T12:29:18;7.57;;;4.23;;
69392;SDS011;56582;44.624;20.378;2023-10-19T12:31:46;7.72;;;4.13;;
69392;SDS011;56582;44.624;20.378;2023-10-19T12:34:12;7.95;;;5.63;;
69392;SDS011;56582;44.624;20.378;2023-10-19T12:36:38;10.90;;;6.20;;
69392;SDS011;56582;44.624;20.378;2023-10-19T12:39:04;8.82;;;6.28;;
69392;SDS011;56582;44.624;20.378;2023-10-19T12:41:33;9.93;;;6.75;;
69392;SDS011;56582;44.624;20.378;2023-10-19T12:43:59;9.95;;;6.03;;
69392;SDS011;56582;44.624;20.378;2023-10-19T12:46:32;8.63;;;5.45;;
69392;SDS011;56582;44.624;20.378;2023-10-19T12:49:02;7.73;;;5.17;;
69392;SDS011;56582;44.624;20.378;2023-10-19T12:51:33;8.98;;;5.10;;
69392;SDS011;56582;44.624;20.378;2023-10-19T12:53:59;9.77;;;5.13;;
69392;SDS011;56582;44.624;20.378;2023-10-19T12:56:28;9.18;;;4.97;;
69392;SDS011;56582;44.624;20.378;2023-10-19T12:58:54;7.27;;;4.60;;
69392;SDS011;56582;44.624;20.378;2023-10-19T13:01:20;9.60;;;5.53;;
69392;SDS011;56582;44.624;20.378;2023-10-19T13:03:46;6.65;;;4.20;;
69392;SDS011;56582;44.624;20.378;2023-10-19T13:06:14;6.90;;;5.05;;
69392;SDS011;56582;44.624;20.378;2023-10-19T13:08:40;6.97;;;4.60;;
69392;SDS011;56582;44.624;20.378;2023-10-19T13:11:06;6.30;;;4.53;;
69392;SDS011;56582;44.624;20.378;2023-10-19T13:13:32;7.28;;;4.40;;
69392;SDS011;56582;44.624;20.378;2023-10-19T13:16:01;7.45;;;4.70;;
69392;SDS011;56582;44.624;20.378;2023-10-19T13:18:30;6.90;;;4.83;;
69392;SDS011;56582;44.624;20.378;2023-10-19T13:20:59;6.90;;;4.97;;
69392;SDS011;56582;44.624;20.378;2023-10-19T13:23:29;8.15;;;5.55;;
69392;SDS011;56582;44.624;20.378;2023-10-19T13:25:58;9.48;;;5.75;;
69392;SDS011;56582;44.624;20.378;2023-10-19T13:28:33;7.93;;;5.57;;
69392;SDS011;56582;44.624;20.378;2023-10-19T13:31:02;10.50;;;4.67;;
69392;SDS011;56582;44.624;20.378;2023-10-19T13:33:28;9.98;;;5.68;;
69392;SDS011;56582;44.624;20.378;2023-10-19T13:35:54;8.30;;;5.68;;
69392;SDS011;56582;44.624;20.378;2023-10-19T13:38:19;8.53;;;5.10;;
69392;SDS011;56582;44.624;20.378;2023-10-19T13:40:45;7.90;;;5.33;;
69392;SDS011;56582;44.624;20.378;2023-10-19T13:43:11;10.77;;;6.50;;
69392;SDS011;56582;44.624;20.378;2023-10-19T13:45:43;11.40;;;6.70;;
69392;SDS011;56582;44.624;20.378;2023-10-19T13:48:09;11.52;;;7.65;;
69392;SDS011;56582;44.624;20.378;2023-10-19T13:50:40;10.83;;;7.20;;
69392;SDS011;56582;44.624;20.378;2023-10-19T13:53:07;10.95;;;7.38;;
69392;SDS011;56582;44.624;20.378;2023-10-19T13:55:35;12.60;;;8.15;;
69392;SDS011;56582;44.624;20.378;2023-10-19T13:58:01;15.57;;;7.57;;
69392;SDS011;56582;44.624;20.378;2023-10-19T14:00:27;13.43;;;8.17;;
69392;SDS011;56582;44.624;20.378;2023-10-19T14:03:01;11.27;;;7.07;;
69392;SDS011;56582;44.624;20.378;2023-10-19T14:05:29;12.55;;;7.32;;
69392;SDS011;56582;44.624;20.378;2023-10-19T14:08:01;10.93;;;8.07;;
69392;SDS011;56582;44.624;20.378;2023-10-19T14:10:28;11.75;;;7.72;;
69392;SDS011;56582;44.624;20.378;2023-10-19T14:12:55;11.60;;;6.33;;
69392;SDS011;56582;44.624;20.378;2023-10-19T14:15:21;10.68;;;6.30;;
69392;SDS011;56582;44.624;20.378;2023-10-19T14:17:47;8.13;;;5.43;;
69392;SDS011;56582;44.624;20.378;2023-10-19T14:20:13;10.73;;;5.77;;
69392;SDS011;56582;44.624;20.378;2023-10-19T14:22:44;9.00;;;5.65;;
69392;SDS011;56582;44.624;20.378;2023-10-19T14:25:11;11.88;;;5.82;;
69392;SDS011;56582;44.624;20.378;2023-10-19T14:27:41;8.77;;;5.80;;
69392;SDS011;56582;44.624;20.378;2023-10-19T14:30:17;9.27;;;5.93;;
69392;SDS011;56582;44.624;20.378;2023-10-19T14:32:47;12.17;;;6.57;;
69392;SDS011;56582;44.624;20.378;2023-10-19T14:35:14;10.35;;;6.40;;
69392;SDS011;56582;44.624;20.378;2023-10-19T14:37:41;13.75;;;6.53;;
69392;SDS011;56582;44.624;20.378;2023-10-19T14:40:11;12.45;;;6.85;;
69392;SDS011;56582;44.624;20.378;2023-10-19T14:42:42;16.27;;;7.45;;
69392;SDS011;56582;44.624;20.378;2023-10-19T14:45:08;10.40;;;6.70;;
69392;SDS011;56582;44.624;20.378;2023-10-19T14:47:35;10.95;;;6.88;;
69392;SDS011;56582;44.624;20.378;2023-10-19T14:50:09;11.57;;;6.88;;